createdAt,value
2023-08-29T00:01:05.740Z,6.30
2023-08-29T00:04:07.987Z,6.45
2023-08-29T00:07:10.226Z,5.97
2023-08-29T00:10:12.642Z,5.63
2023-08-29T00:13:14.744Z,6.12
2023-08-29T00:16:17.944Z,6.10
2023-08-29T00:19:22.616Z,5.47
2023-08-29T00:22:24.824Z,5.70
2023-08-29T00:25:26.891Z,5.73
2023-08-29T00:28:28.997Z,5.65
2023-08-29T00:31:31.158Z,5.47
2023-08-29T00:34:33.293Z,5.75
2023-08-29T00:37:35.399Z,5.78
2023-08-29T00:40:37.562Z,6.53
2023-08-29T00:43:39.898Z,6.50
2023-08-29T00:46:42.655Z,6.60
2023-08-29T00:49:45.016Z,6.10
2023-08-29T00:52:48.185Z,6.37
2023-08-29T00:55:50.904Z,6.10
2023-08-29T00:58:54.186Z,6.18
2023-08-29T01:01:56.481Z,5.97
2023-08-29T01:04:59.272Z,6.07
2023-08-29T01:08:02.587Z,6.10
2023-08-29T01:11:07.713Z,5.47
2023-08-29T01:14:15.619Z,5.97
2023-08-29T01:17:27.173Z,6.12
2023-08-29T01:20:32.065Z,6.65
2023-08-29T01:23:44.415Z,7.20
2023-08-29T01:26:47.709Z,7.10
2023-08-29T01:29:50.397Z,7.35
2023-08-29T01:32:53.502Z,7.75
2023-08-29T01:35:55.707Z,8.00
2023-08-29T01:38:57.780Z,7.95
2023-08-29T01:41:59.845Z,7.27
2023-08-29T01:45:02.035Z,8.48
2023-08-29T01:48:05.647Z,8.80
2023-08-29T01:51:08.315Z,8.77
2023-08-29T01:54:10.641Z,9.63
2023-08-29T01:57:15.413Z,9.93
2023-08-29T02:00:17.879Z,9.68
2023-08-29T02:03:23.071Z,10.23
2023-08-29T02:06:25.171Z,10.10
2023-08-29T02:09:27.292Z,9.77
2023-08-29T02:12:29.409Z,10.03
2023-08-29T02:15:31.547Z,10.25
2023-08-29T02:18:33.633Z,10.40
2023-08-29T02:21:35.775Z,9.32
2023-08-29T02:24:37.834Z,10.45
2023-08-29T02:27:39.995Z,9.77
2023-08-29T02:30:42.209Z,9.88
2023-08-29T02:33:44.594Z,9.18
2023-08-29T02:36:46.766Z,9.30
2023-08-29T02:39:48.844Z,9.00
2023-08-29T02:42:50.962Z,10.00
2023-08-29T02:45:52.967Z,9.50
2023-08-29T02:48:55.092Z,9.23
2023-08-29T02:51:58.059Z,9.23
2023-08-29T02:55:00.336Z,9.43
2023-08-29T02:58:02.493Z,9.10
2023-08-29T03:01:07.574Z,10.63
2023-08-29T03:04:09.762Z,10.05
2023-08-29T03:07:11.870Z,10.40
2023-08-29T03:10:13.944Z,10.55
2023-08-29T03:13:16.164Z,11.27
2023-08-29T03:16:20.957Z,10.18
2023-08-29T03:19:23.086Z,9.95
2023-08-29T03:22:25.229Z,11.12
2023-08-29T03:25:27.359Z,11.48
2023-08-29T03:28:29.640Z,10.50
2023-08-29T03:31:31.871Z,10.45
2023-08-29T03:34:34.756Z,11.60
2023-08-29T03:37:36.933Z,10.38
2023-08-29T03:40:38.987Z,10.80
2023-08-29T03:43:41.084Z,10.07
2023-08-29T03:46:43.306Z,10.98
2023-08-29T03:49:45.384Z,10.45
2023-08-29T03:52:47.476Z,11.73
2023-08-29T03:55:49.522Z,11.27
2023-08-29T03:58:51.632Z,10.60
2023-08-29T04:01:53.684Z,10.75
2023-08-29T04:05:12.298Z,10.90
2023-08-29T04:08:14.715Z,10.75
2023-08-29T04:11:16.797Z,9.98
2023-08-29T04:14:18.857Z,10.10
2023-08-29T04:17:20.938Z,10.40
2023-08-29T04:20:24.270Z,10.52
2023-08-29T04:23:27.205Z,10.60
2023-08-29T04:26:30.052Z,10.68
2023-08-29T04:29:32.179Z,9.93
2023-08-29T04:32:35.708Z,10.65
2023-08-29T04:35:37.861Z,9.65
2023-08-29T04:38:40.040Z,10.00
2023-08-29T04:41:42.135Z,9.75
2023-08-29T04:44:46.484Z,9.13
2023-08-29T04:47:50.287Z,9.98
2023-08-29T04:50:52.383Z,9.15
2023-08-29T04:53:54.455Z,9.65
2023-08-29T04:56:56.649Z,9.20
2023-08-29T04:59:58.813Z,9.80
2023-08-29T05:03:01.132Z,8.75
2023-08-29T05:06:03.506Z,9.38
2023-08-29T05:09:10.206Z,10.10
2023-08-29T05:12:12.356Z,8.90
2023-08-29T05:15:14.573Z,9.60
2023-08-29T05:18:16.774Z,10.07
2023-08-29T05:21:19.043Z,10.15
2023-08-29T05:24:21.179Z,9.23
2023-08-29T05:27:23.293Z,10.38
2023-08-29T05:30:25.553Z,9.47
2023-08-29T05:33:27.766Z,9.88
2023-08-29T05:36:29.872Z,7.50
2023-08-29T05:39:32.054Z,9.45
2023-08-29T05:42:34.213Z,9.70
2023-08-29T05:45:36.484Z,8.40
2023-08-29T05:48:38.894Z,9.07
2023-08-29T05:51:41.088Z,8.95
2023-08-29T05:54:44.576Z,9.35
2023-08-29T05:57:46.710Z,9.35
2023-08-29T06:00:49.753Z,9.53
2023-08-29T06:03:52.005Z,9.00
2023-08-29T06:06:55.455Z,9.38
2023-08-29T06:09:57.537Z,8.73
2023-08-29T06:12:59.886Z,8.63
2023-08-29T06:16:02.003Z,9.17
2023-08-29T06:19:04.019Z,8.90
2023-08-29T06:22:06.219Z,8.93
2023-08-29T06:25:08.973Z,9.85
2023-08-29T06:28:11.127Z,9.40
2023-08-29T06:31:13.243Z,9.13
2023-08-29T06:34:15.395Z,9.07
2023-08-29T06:37:17.516Z,9.18
2023-08-29T06:40:19.673Z,9.43
2023-08-29T06:43:21.909Z,9.68
2023-08-29T06:46:24.437Z,9.10
2023-08-29T06:49:26.659Z,8.68
2023-08-29T06:52:28.820Z,8.77
2023-08-29T06:55:33.979Z,7.95
2023-08-29T06:58:36.180Z,8.60
2023-08-29T07:01:41.470Z,8.17
2023-08-29T07:04:43.658Z,7.70
2023-08-29T07:07:45.680Z,7.62
2023-08-29T07:10:49.509Z,7.18
2023-08-29T07:13:51.879Z,7.40
2023-08-29T07:20:09.960Z,7.53
2023-08-29T07:23:12.179Z,7.60
2023-08-29T07:26:14.254Z,7.37
2023-08-29T07:29:16.434Z,7.07
2023-08-29T07:32:19.035Z,7.03
2023-08-29T07:35:21.104Z,7.55
2023-08-29T07:38:23.308Z,7.00
2023-08-29T07:41:25.456Z,6.57
2023-08-29T07:44:27.679Z,6.62
2023-08-29T07:47:29.920Z,6.50
2023-08-29T07:50:32.153Z,6.47
2023-08-29T07:53:34.260Z,5.97
2023-08-29T07:56:36.354Z,7.12
2023-08-29T07:59:38.501Z,6.80
2023-08-29T08:02:40.838Z,6.17
2023-08-29T08:05:43.010Z,7.10
2023-08-29T08:08:45.104Z,6.53
2023-08-29T08:11:47.808Z,7.22
2023-08-29T08:14:51.916Z,7.05
2023-08-29T08:17:54.040Z,6.70
2023-08-29T08:20:56.328Z,6.90
2023-08-29T08:23:58.345Z,6.75
2023-08-29T08:27:00.519Z,7.25
2023-08-29T08:30:03.071Z,6.80
2023-08-29T08:33:06.397Z,6.37
2023-08-29T08:36:09.125Z,6.10
2023-08-29T08:39:11.651Z,6.62
2023-08-29T08:42:16.404Z,5.25
2023-08-29T08:45:20.607Z,6.05
2023-08-29T08:48:22.960Z,6.50
2023-08-29T08:51:28.288Z,6.70
2023-08-29T08:54:30.541Z,6.50
2023-08-29T08:57:33.285Z,6.15
2023-08-29T09:00:35.451Z,5.90
2023-08-29T09:03:37.556Z,6.47
2023-08-29T09:06:39.814Z,7.43
2023-08-29T09:09:41.917Z,5.55
2023-08-29T09:12:49.726Z,5.70
2023-08-29T09:15:52.011Z,5.62
2023-08-29T09:18:54.136Z,4.00
2023-08-29T09:21:57.009Z,4.55
2023-08-29T09:25:04.367Z,4.65
2023-08-29T09:28:12.049Z,4.20
2023-08-29T09:31:15.697Z,4.22
2023-08-29T09:34:44.402Z,3.77
2023-08-29T09:37:54.618Z,4.03
2023-08-29T09:40:56.833Z,3.80
2023-08-29T09:43:59.128Z,3.53
2023-08-29T09:47:01.468Z,4.10
2023-08-29T09:50:04.412Z,4.23
2023-08-29T09:53:07.204Z,4.60
2023-08-29T09:56:11.332Z,4.47
2023-08-29T09:59:18.360Z,4.93
2023-08-29T10:02:22.368Z,4.47
2023-08-29T10:05:33.705Z,4.60
2023-08-29T10:08:44.936Z,4.80
2023-08-29T10:11:54.977Z,4.35
2023-08-29T10:14:58.782Z,5.12
2023-08-29T10:18:01.153Z,4.43
2023-08-29T10:21:05.281Z,4.47
2023-08-29T10:24:08.907Z,4.25
2023-08-29T10:27:11.606Z,4.28
2023-08-29T10:30:13.995Z,3.83
2023-08-29T10:33:16.519Z,3.95
2023-08-29T10:36:18.813Z,4.10
2023-08-29T10:39:20.987Z,4.10
2023-08-29T10:42:23.102Z,3.83
2023-08-29T10:45:44.676Z,3.95
2023-08-29T10:48:47.514Z,3.65
2023-08-29T10:52:09.705Z,3.60
2023-08-29T10:55:23.800Z,3.35
2023-08-29T10:58:36.176Z,3.28
2023-08-29T11:01:40.766Z,3.47
2023-08-29T11:04:55.775Z,3.33
2023-08-29T11:08:23.447Z,3.50
2023-08-29T11:11:25.756Z,3.55
2023-08-29T11:14:54.915Z,3.70
2023-08-29T11:18:33.817Z,3.50
2023-08-29T11:21:36.001Z,3.55
2023-08-29T11:24:38.226Z,3.43
2023-08-29T11:27:40.587Z,3.53
2023-08-29T11:30:44.907Z,3.58
2023-08-29T11:33:48.174Z,4.28
2023-08-29T11:36:52.774Z,3.45
2023-08-29T11:39:56.815Z,3.90
2023-08-29T11:43:26.042Z,3.58
2023-08-29T11:46:23.181Z,3.80
2023-08-29T11:49:26.507Z,4.00
2023-08-29T11:52:28.663Z,3.62
2023-08-29T11:55:33.154Z,3.40
2023-08-29T11:58:36.706Z,3.92
2023-08-29T12:01:38.835Z,3.78
2023-08-29T12:04:42.663Z,4.12
2023-08-29T12:07:45.429Z,2.87
2023-08-29T12:10:53.376Z,3.17
2023-08-29T12:14:06.681Z,4.00
2023-08-29T12:17:09.257Z,6.35
2023-08-29T12:20:17.080Z,6.03
2023-08-29T12:23:31.349Z,6.72
2023-08-29T12:26:33.730Z,6.33
2023-08-29T12:29:35.865Z,6.07
2023-08-29T12:32:37.923Z,8.00
2023-08-29T12:35:40.348Z,7.70
2023-08-29T12:38:42.463Z,7.60
2023-08-29T12:41:44.781Z,8.30
2023-08-29T12:44:47.020Z,7.03
2023-08-29T12:47:49.456Z,7.07
2023-08-29T12:50:51.569Z,7.07
2023-08-29T12:53:53.725Z,9.00
2023-08-29T12:56:56.428Z,6.27
2023-08-29T12:59:58.519Z,7.03
2023-08-29T13:03:01.557Z,6.35
2023-08-29T13:06:04.102Z,6.65
2023-08-29T13:09:06.355Z,6.60
2023-08-29T13:12:08.950Z,6.17
2023-08-29T13:15:13.742Z,5.28
2023-08-29T13:18:15.799Z,5.15
2023-08-29T13:21:17.865Z,6.07
2023-08-29T13:24:20.034Z,6.40
2023-08-29T13:27:22.165Z,5.20
2023-08-29T13:30:26.968Z,5.37
2023-08-29T13:33:29.039Z,6.18
2023-08-29T13:36:32.642Z,5.87
2023-08-29T13:39:34.741Z,5.62
2023-08-29T13:42:37.306Z,5.03
2023-08-29T13:45:39.639Z,5.35
2023-08-29T13:48:42.113Z,5.25
2023-08-29T13:51:46.617Z,5.50
2023-08-29T13:54:48.815Z,5.90
2023-08-29T13:57:51.317Z,4.40
2023-08-29T14:00:54.963Z,5.90
2023-08-29T14:03:57.773Z,6.95
2023-08-29T14:07:00.277Z,6.57
2023-08-29T14:10:02.528Z,6.28
2023-08-29T14:13:05.017Z,4.90
2023-08-29T14:16:07.601Z,6.68
2023-08-29T14:19:11.318Z,5.75
2023-08-29T14:22:13.736Z,6.32
2023-08-29T14:25:15.866Z,5.47
2023-08-29T14:28:18.174Z,6.50
2023-08-29T14:31:24.570Z,4.00
2023-08-29T14:34:27.717Z,5.80
2023-08-29T14:37:29.834Z,6.12
2023-08-29T14:40:32.294Z,5.50
2023-08-29T14:43:34.910Z,4.17
2023-08-29T14:46:37.369Z,6.30
2023-08-29T14:49:40.072Z,5.72
2023-08-29T14:52:42.535Z,3.42
2023-08-29T14:55:45.128Z,3.42
2023-08-29T14:58:47.988Z,5.90
2023-08-29T15:01:50.546Z,6.68
2023-08-29T15:04:53.331Z,3.20
2023-08-29T15:07:55.411Z,1.83
2023-08-29T15:10:58.098Z,2.03
2023-08-29T15:14:00.509Z,1.27
2023-08-29T15:17:03.364Z,1.10
2023-08-29T15:20:11.257Z,0.60
2023-08-29T15:23:14.664Z,0.90
2023-08-29T15:26:16.918Z,1.30
2023-08-29T15:29:19.434Z,1.50
2023-08-29T15:32:21.895Z,1.30
2023-08-29T15:35:24.496Z,1.02
2023-08-29T15:38:27.611Z,0.65
2023-08-29T15:41:30.393Z,0.82
2023-08-29T15:44:34.594Z,0.90
2023-08-29T15:47:37.831Z,0.85
2023-08-29T15:50:40.543Z,0.77
2023-08-29T15:53:43.005Z,1.10
2023-08-29T15:56:45.730Z,1.40
2023-08-29T15:59:48.749Z,1.00
2023-08-29T16:05:53.824Z,0.50
2023-08-29T16:08:58.546Z,0.60
2023-08-29T16:12:02.549Z,0.65
2023-08-29T16:15:05.419Z,0.80
2023-08-29T16:18:08.201Z,0.65
2023-08-29T16:21:11.335Z,0.95
2023-08-29T16:24:13.876Z,0.93
2023-08-29T16:27:17.040Z,0.70
2023-08-29T16:30:19.211Z,0.53
2023-08-29T16:33:21.744Z,0.60
2023-08-29T16:36:24.756Z,0.45
2023-08-29T16:39:31.826Z,0.30
2023-08-29T16:42:36.825Z,0.70
2023-08-29T16:45:39.164Z,0.60
2023-08-29T16:48:41.579Z,1.02
2023-08-29T16:51:43.691Z,0.55
2023-08-29T16:54:46.445Z,0.60
2023-08-29T16:57:49.194Z,0.95
2023-08-29T17:00:51.492Z,0.70
2023-08-29T17:03:54.311Z,0.70
2023-08-29T17:06:56.557Z,0.52
2023-08-29T17:10:01.184Z,0.55
2023-08-29T17:13:03.791Z,0.60
2023-08-29T17:16:06.760Z,0.70
2023-08-29T17:19:11.448Z,0.50
2023-08-29T17:22:16.595Z,0.40
2023-08-29T17:25:19.818Z,0.65
2023-08-29T17:28:24.250Z,0.55
2023-08-29T17:31:26.903Z,0.80
2023-08-29T17:34:30.290Z,0.25
2023-08-29T17:37:38.791Z,0.65
2023-08-29T17:40:42.416Z,0.40
2023-08-29T17:43:47.438Z,0.70
2023-08-29T17:46:51.506Z,0.50
2023-08-29T17:49:55.604Z,0.60
2023-08-29T17:52:58.130Z,0.43
2023-08-29T17:56:00.613Z,0.40
2023-08-29T17:59:06.201Z,0.60
2023-08-29T18:02:08.398Z,0.80
2023-08-29T18:05:13.252Z,0.60
2023-08-29T18:08:17.287Z,0.57
2023-08-29T18:11:20.363Z,0.60
2023-08-29T18:14:23.040Z,0.50
2023-08-29T18:17:26.402Z,0.50
2023-08-29T18:20:29.698Z,0.55
2023-08-29T18:23:33.005Z,0.40
2023-08-29T18:26:36.204Z,0.35
2023-08-29T18:29:39.326Z,0.50
2023-08-29T18:32:42.680Z,0.60
2023-08-29T18:35:47.098Z,0.40
2023-08-29T18:38:50.765Z,0.40
2023-08-29T18:41:54.309Z,0.30
2023-08-29T18:44:57.921Z,0.40
2023-08-29T18:48:00.782Z,0.33
2023-08-29T18:51:04.274Z,0.40
2023-08-29T18:54:07.086Z,0.40
2023-08-29T18:57:11.016Z,0.40
2023-08-29T19:00:14.687Z,0.30
2023-08-29T19:03:20.106Z,0.30
2023-08-29T19:06:23.349Z,0.30
2023-08-29T19:09:26.174Z,0.30
2023-08-29T19:12:28.962Z,0.30
2023-08-29T19:15:32.249Z,0.32
2023-08-29T19:18:37.972Z,0.40
2023-08-29T19:21:42.403Z,0.30
2023-08-29T19:24:47.106Z,0.40
2023-08-29T19:27:50.688Z,0.30
2023-08-29T19:30:56.089Z,0.40
2023-08-29T19:33:58.666Z,0.37
2023-08-29T19:37:02.263Z,0.40
2023-08-29T19:40:06.565Z,0.50
2023-08-29T19:43:10.193Z,0.40
2023-08-29T19:46:13.789Z,0.30
2023-08-29T19:49:18.876Z,0.37
2023-08-29T19:52:21.736Z,0.40
2023-08-29T19:55:26.184Z,0.43
2023-08-29T19:58:29.286Z,0.52
2023-08-29T20:01:33.036Z,0.37
2023-08-29T20:04:35.708Z,0.30
2023-08-29T20:07:38.945Z,0.32
2023-08-29T20:10:44.724Z,0.37
2023-08-29T20:13:48.007Z,0.40
2023-08-29T20:16:53.964Z,3.58
2023-08-29T20:19:57.286Z,0.60
2023-08-29T20:23:00.629Z,0.55
2023-08-29T20:26:03.253Z,0.57
2023-08-29T20:29:05.953Z,0.60
2023-08-29T20:32:08.767Z,0.55
2023-08-29T20:35:12.206Z,0.70
2023-08-29T20:38:15.488Z,0.60
2023-08-29T20:41:18.471Z,0.47
2023-08-29T20:44:21.005Z,0.70
2023-08-29T20:47:23.464Z,0.77
2023-08-29T20:50:26.529Z,0.60
2023-08-29T20:53:35.590Z,0.88
2023-08-29T20:56:38.002Z,0.73
2023-08-29T20:59:40.956Z,0.70
2023-08-29T21:02:43.314Z,0.90
2023-08-29T21:05:50.002Z,0.70
2023-08-29T21:08:52.233Z,0.62
2023-08-29T21:11:57.773Z,0.80
2023-08-29T21:14:59.957Z,0.73
2023-08-29T21:18:02.147Z,0.80
2023-08-29T21:21:04.390Z,0.60
2023-08-29T21:24:06.813Z,0.73
2023-08-29T21:27:09.424Z,0.60
2023-08-29T21:30:12.028Z,0.77
2023-08-29T21:33:15.060Z,0.80
2023-08-29T21:36:17.245Z,0.80
2023-08-29T21:39:19.321Z,0.50
2023-08-29T21:42:21.552Z,0.50
2023-08-29T21:45:25.603Z,0.70
2023-08-29T21:48:29.871Z,0.88
2023-08-29T21:51:32.051Z,0.60
2023-08-29T21:54:34.225Z,0.57
2023-08-29T21:57:36.254Z,0.68
2023-08-29T22:00:39.010Z,0.70
2023-08-29T22:03:42.536Z,0.90
2023-08-29T22:06:44.751Z,0.67
2023-08-29T22:09:46.924Z,0.90
2023-08-29T22:12:49.485Z,0.50
2023-08-29T22:15:52.404Z,0.50
2023-08-29T22:18:54.536Z,0.60
2023-08-29T22:21:56.725Z,0.67
2023-08-29T22:24:58.841Z,0.70
2023-08-29T22:28:00.992Z,0.50
2023-08-29T22:31:03.314Z,0.70
2023-08-29T22:34:05.677Z,0.80
2023-08-29T22:37:07.742Z,0.50
2023-08-29T22:40:10.426Z,0.50
2023-08-29T22:43:12.531Z,0.68
2023-08-29T22:46:14.759Z,0.55
2023-08-29T22:49:17.262Z,0.80
2023-08-29T22:52:19.469Z,0.50
2023-08-29T22:55:25.900Z,0.80
2023-08-29T22:58:29.054Z,0.93
2023-08-29T23:01:31.431Z,0.80
2023-08-29T23:04:52.295Z,0.77
2023-08-29T23:07:54.477Z,0.83
2023-08-29T23:10:56.694Z,0.73
2023-08-29T23:13:58.810Z,0.90
2023-08-29T23:17:00.970Z,0.77
2023-08-29T23:20:09.180Z,0.77
2023-08-29T23:23:11.323Z,0.77
2023-08-29T23:26:13.466Z,0.90
2023-08-29T23:29:15.670Z,0.88
2023-08-29T23:32:18.570Z,1.00
2023-08-29T23:35:21.718Z,0.80
2023-08-29T23:38:23.761Z,0.80
2023-08-29T23:41:27.054Z,0.95
2023-08-29T23:44:29.177Z,1.10
2023-08-29T23:47:31.555Z,0.60
2023-08-29T23:50:33.823Z,0.90
2023-08-29T23:53:36.531Z,0.73
2023-08-29T23:56:38.718Z,0.70
2023-08-29T23:59:40.880Z,0.55
